createdAt,value
2023-02-02T00:00:22.286Z,19.17
2023-02-02T00:02:48.902Z,13.75
2023-02-02T00:05:15.622Z,20.33
2023-02-02T00:07:42.349Z,10.45
2023-02-02T00:10:09.582Z,15.68
2023-02-02T00:12:36.212Z,16.85
2023-02-02T00:15:02.965Z,19.65
2023-02-02T00:17:29.603Z,10.60
2023-02-02T00:19:56.346Z,14.05
2023-02-02T00:22:23.071Z,11.98
2023-02-02T00:24:49.700Z,8.32
2023-02-02T00:27:16.383Z,9.18
2023-02-02T00:29:43.101Z,9.82
2023-02-02T00:32:09.732Z,15.38
2023-02-02T00:34:36.381Z,18.75
2023-02-02T00:37:03.030Z,7.78
2023-02-02T00:39:29.817Z,16.13
2023-02-02T00:41:56.601Z,8.35
2023-02-02T00:44:42.339Z,17.52
2023-02-02T00:47:09.028Z,14.52
2023-02-02T00:49:35.836Z,15.93
2023-02-02T00:52:02.616Z,9.25
2023-02-02T00:54:29.631Z,10.25
2023-02-02T00:56:56.268Z,10.88
2023-02-02T00:59:22.962Z,12.38
2023-02-02T01:01:49.812Z,11.95
2023-02-02T01:04:16.479Z,17.00
2023-02-02T01:06:43.243Z,13.13
2023-02-02T01:09:09.924Z,12.45
2023-02-02T01:11:36.875Z,24.90
2023-02-02T01:14:03.796Z,29.60
2023-02-02T01:16:30.545Z,16.08
2023-02-02T01:18:57.307Z,26.75
2023-02-02T01:21:24.075Z,17.15
2023-02-02T01:23:50.937Z,19.98
2023-02-02T01:26:18.230Z,17.45
2023-02-02T01:28:45.634Z,26.25
2023-02-02T01:31:16.103Z,11.95
2023-02-02T01:33:44.732Z,9.90
2023-02-02T01:36:14.276Z,15.15
2023-02-02T01:38:42.194Z,18.30
2023-02-02T01:41:12.964Z,15.82
2023-02-02T01:43:45.394Z,16.70
2023-02-02T01:46:16.264Z,7.88
2023-02-02T01:48:48.461Z,14.73
2023-02-02T01:51:19.439Z,19.52
2023-02-02T01:53:49.319Z,12.60
2023-02-02T01:56:24.487Z,12.90
2023-02-02T01:58:51.285Z,12.88
2023-02-02T02:01:17.945Z,12.15
2023-02-02T02:03:44.659Z,12.02
2023-02-02T02:06:14.397Z,20.65
2023-02-02T02:08:52.112Z,16.73
2023-02-02T02:11:20.283Z,14.57
2023-02-02T02:14:05.862Z,14.32
2023-02-02T02:16:35.691Z,16.00
2023-02-02T02:20:08.805Z,23.55
2023-02-02T02:23:08.314Z,12.60
2023-02-02T02:26:14.704Z,16.50
2023-02-02T02:29:04.970Z,17.30
2023-02-02T02:32:02.947Z,13.38
2023-02-02T02:34:29.586Z,9.95
2023-02-02T02:37:00.923Z,19.02
2023-02-02T02:39:35.779Z,17.77
2023-02-02T02:42:13.079Z,20.08
2023-02-02T02:44:41.424Z,7.47
2023-02-02T02:47:08.754Z,18.15
2023-02-02T02:49:43.253Z,12.18
2023-02-02T02:52:09.922Z,11.40
2023-02-02T02:54:42.889Z,12.40
2023-02-02T02:57:47.377Z,8.80
2023-02-02T03:00:39.132Z,18.70
2023-02-02T03:03:10.949Z,11.13
2023-02-02T03:06:02.901Z,5.80
2023-02-02T03:08:55.304Z,8.20
2023-02-02T03:11:22.243Z,9.55
2023-02-02T03:13:49.074Z,11.57
2023-02-02T03:16:17.297Z,11.07
2023-02-02T03:18:44.439Z,10.02
2023-02-02T03:21:11.432Z,8.82
2023-02-02T03:23:38.672Z,10.50
2023-02-02T03:26:05.795Z,15.23
2023-02-02T03:28:32.698Z,13.30
2023-02-02T03:31:01.752Z,18.00
2023-02-02T03:33:29.828Z,22.75
2023-02-02T03:35:56.490Z,17.05
2023-02-02T03:38:23.191Z,11.45
2023-02-02T03:40:51.188Z,12.20
2023-02-02T03:43:24.772Z,16.17
2023-02-02T03:45:58.838Z,21.25
2023-02-02T03:48:26.656Z,13.98
2023-02-02T03:50:53.911Z,10.70
2023-02-02T03:53:20.696Z,14.15
2023-02-02T03:55:47.290Z,11.52
2023-02-02T03:58:13.927Z,15.85
2023-02-02T04:00:40.614Z,21.23
2023-02-02T04:03:07.315Z,13.98
2023-02-02T04:05:33.951Z,12.32
2023-02-02T04:08:00.615Z,15.32
2023-02-02T04:10:27.284Z,24.67
2023-02-02T04:12:54.068Z,20.58
2023-02-02T04:15:20.720Z,22.33
2023-02-02T04:17:47.396Z,14.18
2023-02-02T04:20:14.070Z,16.23
2023-02-02T04:22:40.755Z,13.80
2023-02-02T04:25:07.825Z,16.80
2023-02-02T04:27:34.519Z,25.52
2023-02-02T04:30:01.169Z,12.10
2023-02-02T04:32:27.844Z,11.63
2023-02-02T04:34:54.553Z,23.50
2023-02-02T04:37:21.179Z,17.77
2023-02-02T04:39:48.599Z,18.45
2023-02-02T04:42:15.232Z,27.55
2023-02-02T04:44:43.912Z,24.80
2023-02-02T04:47:10.578Z,16.38
2023-02-02T04:49:37.836Z,18.75
2023-02-02T04:52:04.824Z,13.13
2023-02-02T04:54:32.213Z,21.15
2023-02-02T04:56:58.886Z,18.33
2023-02-02T04:59:28.816Z,21.02
2023-02-02T05:01:59.170Z,16.40
2023-02-02T05:04:26.037Z,23.20
2023-02-02T05:06:52.753Z,14.50
2023-02-02T05:09:19.785Z,17.55
2023-02-02T05:11:46.411Z,17.60
2023-02-02T05:14:13.180Z,13.93
2023-02-02T05:16:39.859Z,18.02
2023-02-02T05:19:06.513Z,20.55
2023-02-02T05:21:33.116Z,29.55
2023-02-02T05:24:01.112Z,20.45
2023-02-02T05:26:27.839Z,23.48
2023-02-02T05:28:54.866Z,16.02
2023-02-02T05:31:21.715Z,31.35
2023-02-02T05:33:48.417Z,22.98
2023-02-02T05:36:15.560Z,22.63
2023-02-02T05:38:42.225Z,24.10
2023-02-02T05:41:09.030Z,25.50
2023-02-02T05:43:35.864Z,13.70
2023-02-02T05:46:02.688Z,19.48
2023-02-02T05:48:29.550Z,23.95
2023-02-02T05:51:12.323Z,21.70
2023-02-02T05:53:38.976Z,25.02
2023-02-02T05:56:05.831Z,24.40
2023-02-02T05:58:32.471Z,23.27
2023-02-02T06:00:59.208Z,14.30
2023-02-02T06:03:26.045Z,19.20
2023-02-02T06:05:52.878Z,16.92
2023-02-02T06:08:19.780Z,18.63
2023-02-02T06:10:46.537Z,24.33
2023-02-02T06:13:13.205Z,23.83
2023-02-02T06:15:41.659Z,20.77
2023-02-02T06:18:08.560Z,24.42
2023-02-02T06:20:36.384Z,18.83
2023-02-02T06:23:03.398Z,22.70
2023-02-02T06:25:30.229Z,21.05
2023-02-02T06:27:58.382Z,25.08
2023-02-02T06:30:25.841Z,15.98
2023-02-02T06:32:52.770Z,15.02
2023-02-02T06:35:20.163Z,10.70
2023-02-02T06:37:46.943Z,13.88
2023-02-02T06:40:13.812Z,20.63
2023-02-02T06:42:40.942Z,14.82
2023-02-02T06:45:08.216Z,16.67
2023-02-02T06:47:34.974Z,10.77
2023-02-02T06:50:01.680Z,17.67
2023-02-02T06:52:28.654Z,13.07
2023-02-02T06:54:55.450Z,10.80
2023-02-02T06:57:22.161Z,16.20
2023-02-02T06:59:48.781Z,19.25
2023-02-02T07:02:15.647Z,24.80
2023-02-02T07:04:42.411Z,10.65
2023-02-02T07:07:09.136Z,18.42
2023-02-02T07:09:35.952Z,16.45
2023-02-02T07:12:02.630Z,13.80
2023-02-02T07:14:29.296Z,12.75
2023-02-02T07:16:55.929Z,17.85
2023-02-02T07:19:22.715Z,8.52
2023-02-02T07:21:49.646Z,11.82
2023-02-02T07:24:16.376Z,15.65
2023-02-02T07:26:43.049Z,15.40
2023-02-02T07:29:13.487Z,14.35
2023-02-02T07:31:40.659Z,24.15
2023-02-02T07:34:07.399Z,13.88
2023-02-02T07:36:34.093Z,18.67
2023-02-02T07:39:03.895Z,13.30
2023-02-02T07:41:31.266Z,14.60
2023-02-02T07:43:58.100Z,12.10
2023-02-02T07:46:25.196Z,16.83
2023-02-02T07:48:55.621Z,12.18
2023-02-02T07:51:23.415Z,15.93
2023-02-02T07:53:52.979Z,11.68
2023-02-02T07:56:25.617Z,10.13
2023-02-02T07:58:53.976Z,14.55
2023-02-02T08:01:23.071Z,14.25
2023-02-02T08:03:53.626Z,8.98
2023-02-02T08:06:26.377Z,10.75
2023-02-02T08:08:53.081Z,10.88
2023-02-02T08:11:22.559Z,18.25
2023-02-02T08:13:50.841Z,12.23
2023-02-02T08:16:17.632Z,16.10
2023-02-02T08:18:44.682Z,13.77
2023-02-02T08:21:12.271Z,10.30
2023-02-02T08:23:40.799Z,13.30
2023-02-02T08:26:25.613Z,14.80
2023-02-02T08:28:57.967Z,19.58
2023-02-02T08:33:58.570Z,17.92
2023-02-02T08:36:27.453Z,14.95
2023-02-02T08:38:54.405Z,13.55
2023-02-02T08:41:24.148Z,15.60
2023-02-02T08:43:51.269Z,25.77
2023-02-02T08:46:20.649Z,20.02
2023-02-02T08:48:48.344Z,29.30
2023-02-02T08:51:18.964Z,24.02
2023-02-02T08:53:46.774Z,31.00
2023-02-02T08:56:21.273Z,20.00
2023-02-02T08:58:53.749Z,23.48
2023-02-02T09:01:23.676Z,27.80
2023-02-02T09:03:55.451Z,22.45
2023-02-02T09:06:24.736Z,14.07
2023-02-02T09:08:51.508Z,15.70
2023-02-02T09:11:19.811Z,20.45
2023-02-02T09:13:48.855Z,26.30
2023-02-02T09:16:19.946Z,13.00
2023-02-02T09:18:46.816Z,16.65
2023-02-02T09:21:15.912Z,16.05
2023-02-02T09:23:44.633Z,20.08
2023-02-02T09:26:14.278Z,10.13
2023-02-02T09:28:43.413Z,20.67
2023-02-02T09:31:10.489Z,20.08
2023-02-02T09:33:37.393Z,14.73
2023-02-02T09:36:06.167Z,15.20
2023-02-02T09:38:32.936Z,21.48
2023-02-02T09:41:00.908Z,16.75
2023-02-02T09:43:56.104Z,19.83
2023-02-02T09:46:34.670Z,20.42
2023-02-02T09:49:12.178Z,24.83
2023-02-02T09:51:43.398Z,15.32
2023-02-02T09:54:19.530Z,20.67
2023-02-02T09:56:51.213Z,19.05
2023-02-02T09:59:31.050Z,22.98
2023-02-02T10:02:03.038Z,17.30
2023-02-02T10:04:29.719Z,23.42
2023-02-02T10:07:00.617Z,21.10
2023-02-02T10:09:43.535Z,21.35
2023-02-02T10:12:47.121Z,14.73
2023-02-02T10:15:35.212Z,16.00
2023-02-02T10:18:19.489Z,23.75
2023-02-02T10:21:00.984Z,12.75
2023-02-02T10:23:29.421Z,15.60
2023-02-02T10:26:05.852Z,10.85
2023-02-02T10:28:42.704Z,17.58
2023-02-02T10:31:22.073Z,17.33
2023-02-02T10:34:18.275Z,20.27
2023-02-02T10:37:03.824Z,17.60
2023-02-02T10:39:56.854Z,15.73
2023-02-02T10:42:45.431Z,24.77
2023-02-02T10:45:19.392Z,18.40
2023-02-02T10:47:46.417Z,19.42
2023-02-02T10:50:13.295Z,18.17
2023-02-02T10:53:09.756Z,15.18
2023-02-02T10:55:51.736Z,28.80
2023-02-02T10:58:28.628Z,14.63
2023-02-02T11:00:58.135Z,15.05
2023-02-02T11:03:31.116Z,11.27
2023-02-02T11:06:19.353Z,16.00
2023-02-02T11:08:49.118Z,21.98
2023-02-02T11:11:25.739Z,15.65
2023-02-02T11:13:58.143Z,14.07
2023-02-02T11:19:18.198Z,8.13
2023-02-02T11:21:50.317Z,11.15
2023-02-02T11:24:57.060Z,12.45
2023-02-02T11:27:30.922Z,10.02
2023-02-02T11:30:00.938Z,16.80
2023-02-02T11:32:35.719Z,9.60
2023-02-02T11:35:02.409Z,17.25
2023-02-02T11:37:29.693Z,18.08
2023-02-02T11:40:34.930Z,13.73
2023-02-02T11:43:05.524Z,10.73
2023-02-02T11:45:41.515Z,7.65
2023-02-02T11:48:18.397Z,8.75
2023-02-02T11:50:51.391Z,9.80
2023-02-02T11:53:26.805Z,18.83
2023-02-02T11:55:55.178Z,15.50
2023-02-02T11:58:29.940Z,10.70
2023-02-02T12:01:02.814Z,12.25
2023-02-02T12:03:37.730Z,20.25
2023-02-02T12:06:24.693Z,9.60
2023-02-02T12:08:56.925Z,12.48
2023-02-02T12:11:40.995Z,9.43
2023-02-02T12:14:38.612Z,12.05
2023-02-02T12:17:26.983Z,14.07
2023-02-02T12:20:05.434Z,12.20
2023-02-02T12:22:34.924Z,7.00
2023-02-02T12:25:15.673Z,16.38
2023-02-02T12:27:45.302Z,14.38
2023-02-02T12:30:34.457Z,14.30
2023-02-02T12:33:25.966Z,14.27
2023-02-02T12:36:20.617Z,16.17
2023-02-02T12:39:11.161Z,13.80
2023-02-02T12:41:55.877Z,18.25
2023-02-02T12:44:37.609Z,17.60
2023-02-02T12:47:22.711Z,12.32
2023-02-02T12:50:21.148Z,8.10
2023-02-02T12:53:37.191Z,15.38
2023-02-02T12:56:13.043Z,10.13
2023-02-02T12:58:56.319Z,13.10
2023-02-02T13:01:31.860Z,6.97
2023-02-02T13:03:58.656Z,12.90
2023-02-02T13:06:29.358Z,12.13
2023-02-02T13:09:04.617Z,9.15
2023-02-02T13:11:50.538Z,10.40
2023-02-02T13:14:25.978Z,13.10
2023-02-02T13:16:57.007Z,9.88
2023-02-02T13:19:40.146Z,15.35
2023-02-02T13:22:29.322Z,9.82
2023-02-02T13:25:01.213Z,14.80
2023-02-02T13:27:30.307Z,20.08
2023-02-02T13:30:12.157Z,13.48
2023-02-02T13:32:42.888Z,9.15
2023-02-02T13:35:27.487Z,10.35
2023-02-02T13:38:04.255Z,12.45
2023-02-02T13:40:36.558Z,12.27
2023-02-02T13:43:15.640Z,9.20
2023-02-02T13:46:10.117Z,12.75
2023-02-02T13:48:39.615Z,20.13
2023-02-02T13:51:35.406Z,15.90
2023-02-02T13:54:27.445Z,12.63
2023-02-02T13:57:21.743Z,6.20
2023-02-02T14:00:03.650Z,10.60
2023-02-02T14:02:53.751Z,11.80
2023-02-02T14:05:34.291Z,15.68
2023-02-02T14:08:17.371Z,8.30
2023-02-02T14:10:59.943Z,13.43
2023-02-02T14:13:53.262Z,6.65
2023-02-02T14:16:23.375Z,14.57
2023-02-02T14:18:55.991Z,15.52
2023-02-02T14:21:31.749Z,14.73
2023-02-02T14:24:21.899Z,13.02
2023-02-02T14:26:51.404Z,11.27
2023-02-02T14:29:31.418Z,11.35
2023-02-02T14:32:07.408Z,11.07
2023-02-02T14:34:36.917Z,9.80
2023-02-02T14:37:09.661Z,8.30
2023-02-02T14:40:00.905Z,15.77
2023-02-02T14:43:05.167Z,13.77
2023-02-02T14:45:39.069Z,12.70
2023-02-02T14:48:23.516Z,15.52
2023-02-02T14:50:56.125Z,11.85
2023-02-02T14:53:30.513Z,12.00
2023-02-02T14:56:13.144Z,11.60
2023-02-02T14:58:54.420Z,14.90
2023-02-02T15:01:24.158Z,8.90
2023-02-02T15:04:21.956Z,14.88
2023-02-02T15:06:51.201Z,11.57
2023-02-02T15:09:22.379Z,10.73
2023-02-02T15:12:08.683Z,8.10
2023-02-02T15:15:15.993Z,14.50
2023-02-02T15:17:56.075Z,9.60
2023-02-02T15:20:31.234Z,6.43
2023-02-02T15:23:15.376Z,12.15
2023-02-02T15:25:47.606Z,13.80
2023-02-02T15:28:24.344Z,8.68
2023-02-02T15:31:07.588Z,4.65
2023-02-02T15:33:42.183Z,8.77
2023-02-02T15:36:33.461Z,9.02
2023-02-02T15:39:09.690Z,8.25
2023-02-02T15:41:46.509Z,4.78
2023-02-02T15:44:20.503Z,11.23
2023-02-02T15:46:48.564Z,8.20
2023-02-02T15:49:34.434Z,8.98
2023-02-02T15:52:15.459Z,10.75
2023-02-02T15:54:59.293Z,6.47
2023-02-02T15:57:35.225Z,8.43
2023-02-02T16:00:23.979Z,13.35
2023-02-02T16:03:06.550Z,9.77
2023-02-02T16:08:08.579Z,6.18
2023-02-02T16:10:35.736Z,5.88
2023-02-02T16:13:02.998Z,10.07
2023-02-02T16:15:32.049Z,11.68
2023-02-02T16:18:00.147Z,9.35
2023-02-02T16:20:29.612Z,10.95
2023-02-02T16:23:01.990Z,6.63
2023-02-02T16:25:33.393Z,10.73
2023-02-02T16:28:01.003Z,4.82
2023-02-02T16:30:30.836Z,10.57
2023-02-02T16:32:57.851Z,3.60
2023-02-02T16:35:30.850Z,5.35
2023-02-02T16:38:14.662Z,3.92
2023-02-02T16:40:41.716Z,7.60
2023-02-02T16:43:18.999Z,10.65
2023-02-02T16:45:55.692Z,9.45
2023-02-02T16:48:42.440Z,15.93
2023-02-02T16:51:18.082Z,9.23
2023-02-02T16:53:47.895Z,6.35
2023-02-02T16:56:28.802Z,9.27
2023-02-02T16:58:58.353Z,8.68
2023-02-02T17:01:44.464Z,6.85
2023-02-02T17:04:23.381Z,6.40
2023-02-02T17:06:53.234Z,7.97
2023-02-02T17:09:34.009Z,13.02
2023-02-02T17:12:32.751Z,12.57
2023-02-02T17:15:20.610Z,7.72
2023-02-02T17:17:48.834Z,9.65
2023-02-02T17:20:16.949Z,7.03
2023-02-02T17:22:46.606Z,6.07
2023-02-02T17:25:19.752Z,6.45
2023-02-02T17:27:46.982Z,8.43
2023-02-02T17:30:16.597Z,9.50
2023-02-02T17:32:43.285Z,14.25
2023-02-02T17:35:17.267Z,11.48
2023-02-02T17:37:43.990Z,7.85
2023-02-02T17:40:15.158Z,6.30
2023-02-02T17:42:43.935Z,10.25
2023-02-02T17:45:16.333Z,4.88
2023-02-02T17:50:11.101Z,10.73
2023-02-02T17:52:38.640Z,7.13
2023-02-02T17:55:27.114Z,8.35
2023-02-02T17:57:54.460Z,6.65
2023-02-02T18:00:24.583Z,7.55
2023-02-02T18:02:57.193Z,6.95
2023-02-02T18:05:24.226Z,8.90
2023-02-02T18:07:51.044Z,5.80
2023-02-02T18:10:24.740Z,4.78
2023-02-02T18:12:51.851Z,3.92
2023-02-02T18:15:18.671Z,9.25
2023-02-02T18:17:45.299Z,6.70
2023-02-02T18:20:14.903Z,6.20
2023-02-02T18:22:44.212Z,8.07
2023-02-02T18:25:11.453Z,12.07
2023-02-02T18:27:38.188Z,15.05
2023-02-02T18:30:05.473Z,10.32
2023-02-02T18:32:37.045Z,12.60
2023-02-02T18:35:04.566Z,8.98
2023-02-02T18:37:31.241Z,9.25
2023-02-02T18:39:57.875Z,21.30
2023-02-02T18:42:26.389Z,9.38
2023-02-02T18:44:53.613Z,15.40
2023-02-02T18:47:20.348Z,9.18
2023-02-02T18:49:47.115Z,10.57
2023-02-02T18:52:13.762Z,7.28
2023-02-02T18:54:40.603Z,6.90
2023-02-02T18:57:07.576Z,3.75
2023-02-02T18:59:36.004Z,5.97
2023-02-02T19:02:02.771Z,6.28
2023-02-02T19:04:29.616Z,14.70
2023-02-02T19:07:15.185Z,5.30
2023-02-02T19:09:41.880Z,13.40
2023-02-02T19:12:15.723Z,6.38
2023-02-02T19:14:43.233Z,12.45
2023-02-02T19:17:22.097Z,10.50
2023-02-02T19:19:49.812Z,10.68
2023-02-02T19:22:24.879Z,6.07
2023-02-02T19:24:51.538Z,10.40
2023-02-02T19:27:21.528Z,7.82
2023-02-02T19:29:50.940Z,4.07
2023-02-02T19:32:23.108Z,8.02
2023-02-02T19:34:52.742Z,10.65
2023-02-02T19:37:30.677Z,9.80
2023-02-02T19:40:09.543Z,7.55
2023-02-02T19:42:43.223Z,8.02
2023-02-02T19:45:31.692Z,5.10
2023-02-02T19:48:01.303Z,8.80
2023-02-02T19:50:32.715Z,6.03
2023-02-02T19:53:01.832Z,11.70
2023-02-02T19:55:36.033Z,3.58
2023-02-02T19:58:18.338Z,7.88
2023-02-02T20:00:47.014Z,6.18
2023-02-02T20:03:23.219Z,12.80
2023-02-02T20:05:55.869Z,9.68
2023-02-02T20:08:42.072Z,7.15
2023-02-02T20:11:23.886Z,4.40
2023-02-02T20:13:51.366Z,11.02
2023-02-02T20:16:23.773Z,4.68
2023-02-02T20:18:55.317Z,22.13
2023-02-02T20:21:42.986Z,10.17
2023-02-02T20:24:22.519Z,6.30
2023-02-02T20:26:50.470Z,9.95
2023-02-02T20:29:36.385Z,11.15
2023-02-02T20:32:05.166Z,6.72
2023-02-02T20:34:35.706Z,5.60
2023-02-02T20:37:15.840Z,10.18
2023-02-02T20:39:48.154Z,10.88
2023-02-02T20:44:42.871Z,4.13
2023-02-02T20:47:09.883Z,7.65
2023-02-02T20:49:37.521Z,7.57
2023-02-02T20:52:11.824Z,12.73
2023-02-02T20:54:39.428Z,9.10
2023-02-02T20:57:06.300Z,11.18
2023-02-02T20:59:33.046Z,7.22
2023-02-02T21:02:00.136Z,9.35
2023-02-02T21:04:27.003Z,10.13
2023-02-02T21:06:55.302Z,7.20
2023-02-02T21:09:22.090Z,17.45
2023-02-02T21:11:48.844Z,7.88
2023-02-02T21:14:15.580Z,5.47
2023-02-02T21:16:42.507Z,4.47
2023-02-02T21:19:09.348Z,5.90
2023-02-02T21:21:36.367Z,6.78
2023-02-02T21:24:04.162Z,5.93
2023-02-02T21:26:31.119Z,6.22
2023-02-02T21:28:58.474Z,8.48
2023-02-02T21:31:25.869Z,8.13
2023-02-02T21:33:53.228Z,6.97
2023-02-02T21:36:31.866Z,12.68
2023-02-02T21:39:14.438Z,5.10
2023-02-02T21:44:22.394Z,13.73
2023-02-02T21:46:51.298Z,10.13
2023-02-02T21:49:38.331Z,5.10
2023-02-02T21:52:15.734Z,6.35
2023-02-02T21:54:42.815Z,7.00
2023-02-02T21:57:13.832Z,6.80
2023-02-02T21:59:40.593Z,5.55
2023-02-02T22:02:44.971Z,7.45
2023-02-02T22:05:35.184Z,6.75
2023-02-02T22:08:07.880Z,5.25
2023-02-02T22:10:43.251Z,4.53
2023-02-02T22:13:19.106Z,5.45
2023-02-02T22:15:47.759Z,4.75
2023-02-02T22:18:20.552Z,12.70
2023-02-02T22:20:49.630Z,3.17
2023-02-02T22:23:27.655Z,2.25
2023-02-02T22:25:58.958Z,7.25
2023-02-02T22:28:27.390Z,6.25
2023-02-02T22:30:55.949Z,3.95
2023-02-02T22:33:23.489Z,5.85
2023-02-02T22:35:50.614Z,5.93
2023-02-02T22:38:19.777Z,3.58
2023-02-02T22:40:47.824Z,4.65
2023-02-02T22:43:16.291Z,5.13
2023-02-02T22:45:43.821Z,6.95
2023-02-02T22:48:11.572Z,6.75
2023-02-02T22:50:38.690Z,6.07
2023-02-02T22:53:05.737Z,4.85
2023-02-02T22:55:33.003Z,6.80
2023-02-02T22:58:00.175Z,5.90
2023-02-02T23:00:30.029Z,6.55
2023-02-02T23:02:57.237Z,4.95
2023-02-02T23:05:25.567Z,5.07
2023-02-02T23:07:53.461Z,6.20
2023-02-02T23:10:24.107Z,7.15
2023-02-02T23:12:53.635Z,5.07
2023-02-02T23:15:20.977Z,6.03
2023-02-02T23:17:47.875Z,4.47
2023-02-02T23:20:15.327Z,9.20
2023-02-02T23:22:42.105Z,3.25
2023-02-02T23:25:09.141Z,3.38
2023-02-02T23:27:36.478Z,7.85
2023-02-02T23:30:03.916Z,5.20
2023-02-02T23:32:30.719Z,8.75
2023-02-02T23:34:57.455Z,4.38
2023-02-02T23:37:24.141Z,7.97
2023-02-02T23:39:50.832Z,11.65
2023-02-02T23:42:18.176Z,12.23
2023-02-02T23:44:44.883Z,9.05
2023-02-02T23:47:11.618Z,7.75
2023-02-02T23:49:38.638Z,6.60
2023-02-02T23:52:05.870Z,5.20
2023-02-02T23:54:32.959Z,4.32
2023-02-02T23:56:59.824Z,14.45
2023-02-02T23:59:26.532Z,7.45
